AAL983 KDTW-KLAS
Flight info
| Callsign | AAL983 |
|---|---|
| Flight time | 4h 5m |
| Altitude | 36000 |
| Route | KAYLN3 SMUUV OBK IOW J60 HVE GGAPP CHOWW4 |
| Aircraft | A20N/M-SDE2E3FGHIRWXY/LB1 |
Departure
| Time | 2026-05-07 21:42 |
|---|---|
| Airport | Detroit Metropolitan Wayne County Airport (KDTW) |
Arrival
| Time | 2026-05-08 01:47 |
|---|---|
| Airport | Harry Reid International Airport (KLAS) |
| Time | Latitude | Longitude | Altitude | Speed | Heading |
|---|---|---|---|---|---|
| 2026-05-07 21:30 | 42.21957 | -83.34782 | 652 ft | 0 kts | 316° |
| 2026-05-07 21:34 | 42.21945 | -83.34768 | 654 ft | 2 kts | 321° |
| 2026-05-07 21:34 | 42.21932 | -83.34755 | 654 ft | 2 kts | 329° |
| 2026-05-07 21:34 | 42.21917 | -83.34745 | 656 ft | 2 kts | 341° |
| 2026-05-07 21:34 | 42.21900 | -83.34741 | 655 ft | 2 kts | 2° |
| 2026-05-07 21:35 | 42.21885 | -83.34748 | 654 ft | 2 kts | 40° |
| 2026-05-07 21:35 | 42.21878 | -83.34764 | 652 ft | 1 kts | 102° |
| 2026-05-07 21:35 | 42.21878 | -83.34765 | 652 ft | 0 kts | 108° |
| 2026-05-07 21:37 | 42.21869 | -83.34736 | 652 ft | 6 kts | 117° |
| 2026-05-07 21:37 | 42.21842 | -83.34629 | 652 ft | 18 kts | 91° |
| 2026-05-07 21:37 | 42.21838 | -83.34443 | 654 ft | 21 kts | 89° |
| 2026-05-07 21:37 | 42.21882 | -83.34304 | 650 ft | 7 kts | 1° |
| 2026-05-07 21:38 | 42.21962 | -83.34341 | 651 ft | 16 kts | 347° |
| 2026-05-07 21:38 | 42.22074 | -83.34340 | 651 ft | 21 kts | 26° |
| 2026-05-07 21:38 | 42.22204 | -83.34253 | 651 ft | 20 kts | 27° |
| 2026-05-07 21:38 | 42.22323 | -83.34161 | 652 ft | 20 kts | 30° |
| 2026-05-07 21:39 | 42.22440 | -83.34073 | 652 ft | 19 kts | 28° |
| 2026-05-07 21:39 | 42.22556 | -83.33989 | 653 ft | 21 kts | 28° |
| 2026-05-07 21:39 | 42.22690 | -83.33890 | 651 ft | 22 kts | 28° |
| 2026-05-07 21:39 | 42.22822 | -83.33797 | 651 ft | 22 kts | 28° |
| 2026-05-07 21:40 | 42.22865 | -83.33730 | 650 ft | 5 kts | 127° |
| 2026-05-07 21:40 | 42.22814 | -83.33661 | 648 ft | 12 kts | 161° |
| 2026-05-07 21:40 | 42.22749 | -83.33679 | 649 ft | 0 kts | 208° |
| 2026-05-07 21:41 | 42.22634 | -83.33767 | 650 ft | 50 kts | 211° |
| 2026-05-07 21:41 | 42.22120 | -83.34149 | 649 ft | 119 kts | 208° |
| 2026-05-07 21:41 | 42.21187 | -83.34823 | 652 ft | 180 kts | 213° |
| 2026-05-07 21:41 | 42.20026 | -83.35631 | 1109 ft | 192 kts | 211° |
| 2026-05-07 21:42 | 42.18918 | -83.36631 | 1821 ft | 194 kts | 235° |
| 2026-05-07 21:42 | 42.18189 | -83.38103 | 2595 ft | 194 kts | 243° |
| 2026-05-07 21:42 | 42.17448 | -83.39755 | 2997 ft | 217 kts | 242° |
| 2026-05-07 21:42 | 42.16578 | -83.41534 | 3377 ft | 237 kts | 239° |
| 2026-05-07 21:43 | 42.15603 | -83.43381 | 4001 ft | 244 kts | 238° |
| 2026-05-07 21:43 | 42.14587 | -83.45227 | 4723 ft | 246 kts | 237° |
| 2026-05-07 21:43 | 42.13552 | -83.47075 | 5432 ft | 248 kts | 237° |
| 2026-05-07 21:43 | 42.12507 | -83.48925 | 6184 ft | 248 kts | 237° |
| 2026-05-07 21:44 | 42.11453 | -83.50782 | 6752 ft | 251 kts | 237° |
| 2026-05-07 21:44 | 42.10389 | -83.52650 | 6973 ft | 252 kts | 237° |
| 2026-05-07 21:44 | 42.09319 | -83.54527 | 6997 ft | 252 kts | 237° |
| 2026-05-07 21:44 | 42.08250 | -83.56399 | 7004 ft | 252 kts | 237° |
| 2026-05-07 21:45 | 42.07189 | -83.58285 | 7065 ft | 252 kts | 240° |
| 2026-05-07 21:45 | 42.06402 | -83.60376 | 7563 ft | 249 kts | 257° |
| 2026-05-07 21:45 | 42.06221 | -83.62662 | 8342 ft | 245 kts | 276° |
| 2026-05-07 21:45 | 42.06698 | -83.64852 | 8853 ft | 246 kts | 296° |
| 2026-05-07 21:46 | 42.07615 | -83.66797 | 8998 ft | 248 kts | 303° |
| 2026-05-07 21:46 | 42.08645 | -83.68670 | 9005 ft | 249 kts | 304° |
| 2026-05-07 21:46 | 42.09678 | -83.70521 | 9003 ft | 250 kts | 303° |
| 2026-05-07 21:46 | 42.10714 | -83.72397 | 9004 ft | 250 kts | 303° |
| 2026-05-07 21:47 | 42.11747 | -83.74286 | 9002 ft | 250 kts | 303° |
| 2026-05-07 21:47 | 42.12773 | -83.76175 | 8999 ft | 250 kts | 303° |
| 2026-05-07 21:47 | 42.13796 | -83.78065 | 9001 ft | 250 kts | 303° |
| 2026-05-07 21:47 | 42.14819 | -83.79962 | 8994 ft | 250 kts | 303° |
| 2026-05-07 21:48 | 42.15840 | -83.81859 | 9061 ft | 250 kts | 302° |
| 2026-05-07 21:48 | 42.16866 | -83.83766 | 9571 ft | 252 kts | 303° |
| 2026-05-07 21:48 | 42.17893 | -83.85676 | 10340 ft | 254 kts | 302° |
| 2026-05-07 21:48 | 42.18963 | -83.87673 | 10695 ft | 271 kts | 302° |
| 2026-05-07 21:49 | 42.20098 | -83.89797 | 11015 ft | 288 kts | 302° |
| 2026-05-07 21:49 | 42.21292 | -83.92023 | 11598 ft | 295 kts | 302° |
| 2026-05-07 21:49 | 42.22502 | -83.94277 | 12377 ft | 297 kts | 302° |
| 2026-05-07 21:49 | 42.23714 | -83.96535 | 13175 ft | 298 kts | 302° |
| 2026-05-07 21:50 | 42.24914 | -83.98774 | 13957 ft | 298 kts | 302° |
| 2026-05-07 21:50 | 42.26133 | -84.01053 | 14593 ft | 301 kts | 302° |
| 2026-05-07 21:50 | 42.27367 | -84.03364 | 15196 ft | 305 kts | 302° |
| 2026-05-07 21:50 | 42.28614 | -84.05699 | 15782 ft | 308 kts | 302° |
| 2026-05-07 21:51 | 42.29874 | -84.08062 | 16391 ft | 311 kts | 302° |
| 2026-05-07 21:51 | 42.31144 | -84.10446 | 16985 ft | 315 kts | 302° |
| 2026-05-07 21:51 | 42.32432 | -84.12863 | 17572 ft | 318 kts | 302° |
| 2026-05-07 21:51 | 42.33728 | -84.15300 | 18162 ft | 322 kts | 302° |
| 2026-05-07 21:52 | 42.35043 | -84.17773 | 18682 ft | 325 kts | 302° |
| 2026-05-07 21:52 | 42.36370 | -84.20269 | 19214 ft | 328 kts | 302° |
| 2026-05-07 21:52 | 42.37707 | -84.22787 | 19737 ft | 331 kts | 302° |
| 2026-05-07 21:52 | 42.39050 | -84.25320 | 20250 ft | 333 kts | 302° |
| 2026-05-07 21:53 | 42.40409 | -84.27884 | 20758 ft | 336 kts | 302° |
| 2026-05-07 21:53 | 42.41684 | -84.30543 | 21256 ft | 337 kts | 296° |
| 2026-05-07 21:53 | 42.42635 | -84.33443 | 21753 ft | 338 kts | 287° |
| 2026-05-07 21:53 | 42.43157 | -84.36559 | 22259 ft | 341 kts | 278° |
| 2026-05-07 21:54 | 42.43336 | -84.39777 | 22740 ft | 344 kts | 274° |
| 2026-05-07 21:54 | 42.43421 | -84.43030 | 23217 ft | 347 kts | 273° |
| 2026-05-07 21:54 | 42.43495 | -84.46315 | 23673 ft | 350 kts | 273° |
| 2026-05-07 21:54 | 42.43570 | -84.49570 | 24079 ft | 351 kts | 273° |
| 2026-05-07 21:55 | 42.43649 | -84.52880 | 24505 ft | 352 kts | 273° |
| 2026-05-07 21:55 | 42.43730 | -84.56201 | 24912 ft | 353 kts | 273° |
| 2026-05-07 21:55 | 42.43813 | -84.59543 | 25305 ft | 355 kts | 273° |
| 2026-05-07 21:55 | 42.43896 | -84.62889 | 25695 ft | 356 kts | 273° |
| 2026-05-07 21:56 | 42.43978 | -84.66244 | 26062 ft | 358 kts | 273° |
| 2026-05-07 21:56 | 42.44060 | -84.69623 | 26429 ft | 359 kts | 273° |
| 2026-05-07 21:56 | 42.44142 | -84.73024 | 26799 ft | 361 kts | 273° |
| 2026-05-07 21:56 | 42.44222 | -84.76426 | 27138 ft | 362 kts | 273° |
| 2026-05-07 21:57 | 42.44301 | -84.79795 | 27480 ft | 364 kts | 273° |
| 2026-05-07 21:57 | 42.44381 | -84.83226 | 27833 ft | 365 kts | 273° |
| 2026-05-07 21:57 | 42.44460 | -84.86677 | 28171 ft | 367 kts | 273° |
| 2026-05-07 21:57 | 42.44539 | -84.90144 | 28507 ft | 368 kts | 273° |
| 2026-05-07 21:58 | 42.44616 | -84.93620 | 28828 ft | 370 kts | 273° |
| 2026-05-07 21:58 | 42.44693 | -84.97104 | 29144 ft | 371 kts | 273° |
| 2026-05-07 21:58 | 42.44768 | -85.00601 | 29441 ft | 373 kts | 272° |
| 2026-05-07 21:58 | 42.44843 | -85.04116 | 29738 ft | 374 kts | 272° |
| 2026-05-07 21:59 | 42.44918 | -85.07655 | 30079 ft | 374 kts | 272° |
| 2026-05-07 21:59 | 42.44991 | -85.11174 | 30408 ft | 373 kts | 272° |
| 2026-05-07 21:59 | 42.45062 | -85.14677 | 30688 ft | 373 kts | 272° |
| 2026-05-07 21:59 | 42.45133 | -85.18198 | 30951 ft | 373 kts | 272° |
| 2026-05-07 22:00 | 42.45202 | -85.21672 | 31192 ft | 374 kts | 272° |
| 2026-05-07 22:00 | 42.45271 | -85.25195 | 31452 ft | 374 kts | 272° |
| 2026-05-07 22:00 | 42.45338 | -85.28708 | 31717 ft | 373 kts | 272° |
| 2026-05-07 22:00 | 42.45405 | -85.32230 | 31982 ft | 373 kts | 272° |
| 2026-05-07 22:01 | 42.45470 | -85.35742 | 32230 ft | 373 kts | 272° |
| 2026-05-07 22:01 | 42.45535 | -85.39269 | 32482 ft | 373 kts | 272° |
| 2026-05-07 22:01 | 42.45598 | -85.42778 | 32741 ft | 373 kts | 272° |
| 2026-05-07 22:01 | 42.45661 | -85.46297 | 32989 ft | 372 kts | 272° |
| 2026-05-07 22:02 | 42.45721 | -85.49757 | 33225 ft | 372 kts | 272° |
| 2026-05-07 22:02 | 42.45780 | -85.53254 | 33462 ft | 372 kts | 272° |
| 2026-05-07 22:02 | 42.45839 | -85.56761 | 33703 ft | 371 kts | 272° |
| 2026-05-07 22:02 | 42.45897 | -85.60261 | 33937 ft | 371 kts | 272° |
| 2026-05-07 22:03 | 42.45953 | -85.63745 | 34108 ft | 371 kts | 272° |
| 2026-05-07 22:03 | 42.46009 | -85.67245 | 34276 ft | 371 kts | 272° |
| 2026-05-07 22:03 | 42.46064 | -85.70750 | 34436 ft | 371 kts | 272° |
| 2026-05-07 22:03 | 42.46117 | -85.74237 | 34587 ft | 371 kts | 272° |
| 2026-05-07 22:04 | 42.46168 | -85.77699 | 34749 ft | 371 kts | 272° |
| 2026-05-07 22:04 | 42.46220 | -85.81192 | 34902 ft | 371 kts | 272° |
| 2026-05-07 22:04 | 42.46270 | -85.84685 | 35036 ft | 371 kts | 272° |
| 2026-05-07 22:04 | 42.46319 | -85.88180 | 35184 ft | 370 kts | 272° |
| 2026-05-07 22:05 | 42.46367 | -85.91668 | 35314 ft | 370 kts | 272° |
| 2026-05-07 22:05 | 42.46414 | -85.95155 | 35430 ft | 371 kts | 272° |
| 2026-05-07 22:05 | 42.46460 | -85.98648 | 35551 ft | 370 kts | 272° |
| 2026-05-07 22:05 | 42.46505 | -86.02134 | 35673 ft | 370 kts | 272° |
| 2026-05-07 22:06 | 42.46549 | -86.05630 | 35791 ft | 370 kts | 272° |
| 2026-05-07 22:06 | 42.46591 | -86.09108 | 35909 ft | 370 kts | 272° |
| 2026-05-07 22:06 | 42.46245 | -86.16036 | 35947 ft | 370 kts | 264° |
| 2026-05-07 22:07 | 42.45417 | -86.22927 | 35946 ft | 370 kts | 263° |
| 2026-05-07 22:07 | 42.44504 | -86.29794 | 35943 ft | 370 kts | 263° |
| 2026-05-07 22:08 | 42.43601 | -86.36653 | 35946 ft | 370 kts | 263° |
| 2026-05-07 22:08 | 42.42720 | -86.43465 | 35944 ft | 370 kts | 263° |
| 2026-05-07 22:09 | 42.41836 | -86.50321 | 35948 ft | 369 kts | 263° |
| 2026-05-07 22:09 | 42.40950 | -86.57169 | 35946 ft | 369 kts | 263° |
| 2026-05-07 22:10 | 42.40060 | -86.64006 | 35949 ft | 369 kts | 263° |
| 2026-05-07 22:10 | 42.39166 | -86.70843 | 35950 ft | 368 kts | 263° |
| 2026-05-07 22:11 | 42.38267 | -86.77671 | 35947 ft | 368 kts | 263° |
| 2026-05-07 22:11 | 42.37374 | -86.84433 | 35941 ft | 368 kts | 263° |
| 2026-05-07 22:12 | 42.36471 | -86.91232 | 35942 ft | 367 kts | 263° |
| 2026-05-07 22:12 | 42.35565 | -86.98025 | 35939 ft | 367 kts | 263° |
| 2026-05-07 22:13 | 42.34808 | -87.03672 | 35938 ft | 366 kts | 263° |
| 2026-05-07 22:13 | 42.33898 | -87.10440 | 35940 ft | 366 kts | 262° |
| 2026-05-07 22:14 | 42.32980 | -87.17230 | 35944 ft | 366 kts | 262° |
| 2026-05-07 22:14 | 42.32066 | -87.23961 | 35941 ft | 366 kts | 262° |
| 2026-05-07 22:15 | 42.31141 | -87.30740 | 35947 ft | 367 kts | 262° |
| 2026-05-07 22:15 | 42.30212 | -87.37521 | 35944 ft | 367 kts | 262° |
| 2026-05-07 22:16 | 42.29278 | -87.44305 | 35945 ft | 367 kts | 262° |
| 2026-05-07 22:16 | 42.28346 | -87.51050 | 35936 ft | 367 kts | 262° |
| 2026-05-07 22:17 | 42.27404 | -87.57834 | 35930 ft | 367 kts | 262° |
| 2026-05-07 22:17 | 42.26459 | -87.64603 | 35927 ft | 366 kts | 262° |
| 2026-05-07 22:18 | 42.25044 | -87.74686 | 35930 ft | 366 kts | 262° |
| 2026-05-07 22:19 | 42.24092 | -87.81423 | 35925 ft | 365 kts | 262° |
| 2026-05-07 22:19 | 42.23136 | -87.88163 | 35926 ft | 365 kts | 262° |
| 2026-05-07 22:20 | 42.22173 | -87.94877 | 35925 ft | 365 kts | 261° |
| 2026-05-07 22:20 | 42.21067 | -88.01559 | 35927 ft | 365 kts | 260° |
| 2026-05-07 22:21 | 42.19891 | -88.08175 | 35931 ft | 364 kts | 259° |
| 2026-05-07 22:21 | 42.18706 | -88.14819 | 35923 ft | 364 kts | 260° |
| 2026-05-07 22:22 | 42.17530 | -88.21456 | 35922 ft | 363 kts | 259° |
| 2026-05-07 22:22 | 42.16357 | -88.28089 | 35916 ft | 363 kts | 260° |
| 2026-05-07 22:23 | 42.15192 | -88.34661 | 35917 ft | 363 kts | 259° |
| 2026-05-07 22:23 | 42.14013 | -88.41283 | 35912 ft | 362 kts | 259° |
| 2026-05-07 22:24 | 42.12835 | -88.47876 | 35923 ft | 362 kts | 259° |
| 2026-05-07 22:24 | 42.11653 | -88.54463 | 35920 ft | 361 kts | 259° |
| 2026-05-07 22:25 | 42.10469 | -88.61038 | 35920 ft | 361 kts | 259° |
| 2026-05-07 22:25 | 42.09284 | -88.67601 | 35922 ft | 361 kts | 259° |
| 2026-05-07 22:26 | 42.08094 | -88.74161 | 35925 ft | 360 kts | 259° |
| 2026-05-07 22:26 | 42.06903 | -88.80710 | 35923 ft | 360 kts | 259° |
| 2026-05-07 22:27 | 42.05709 | -88.87253 | 35926 ft | 360 kts | 259° |
| 2026-05-07 22:27 | 42.04519 | -88.93744 | 35915 ft | 359 kts | 259° |
| 2026-05-07 22:28 | 42.03317 | -89.00284 | 35915 ft | 359 kts | 259° |
| 2026-05-07 22:28 | 42.02112 | -89.06816 | 35916 ft | 359 kts | 259° |
| 2026-05-07 22:29 | 42.00906 | -89.13332 | 35915 ft | 359 kts | 259° |
| 2026-05-07 22:29 | 41.99705 | -89.19801 | 35915 ft | 359 kts | 259° |
| 2026-05-07 22:30 | 41.98492 | -89.26306 | 35913 ft | 359 kts | 259° |
| 2026-05-07 22:30 | 41.97276 | -89.32811 | 35910 ft | 359 kts | 259° |
| 2026-05-07 22:31 | 41.96055 | -89.39318 | 35913 ft | 358 kts | 259° |
| 2026-05-07 22:31 | 41.94831 | -89.45818 | 35899 ft | 358 kts | 259° |
| 2026-05-07 22:32 | 41.93605 | -89.52308 | 35899 ft | 358 kts | 258° |
| 2026-05-07 22:32 | 41.92383 | -89.58756 | 35892 ft | 358 kts | 258° |
| 2026-05-07 22:33 | 41.91149 | -89.65243 | 35896 ft | 358 kts | 258° |
| 2026-05-07 22:33 | 41.89913 | -89.71723 | 35897 ft | 358 kts | 258° |
| 2026-05-07 22:34 | 41.88673 | -89.78200 | 35898 ft | 358 kts | 258° |
| 2026-05-07 22:34 | 41.87430 | -89.84671 | 35897 ft | 358 kts | 258° |
| 2026-05-07 22:35 | 41.86181 | -89.91151 | 35898 ft | 358 kts | 258° |
| 2026-05-07 22:35 | 41.84932 | -89.97612 | 35900 ft | 358 kts | 258° |
| 2026-05-07 22:36 | 41.83678 | -90.04075 | 35901 ft | 358 kts | 258° |
| 2026-05-07 22:36 | 41.82423 | -90.10523 | 35906 ft | 357 kts | 258° |
| 2026-05-07 22:37 | 41.81172 | -90.16930 | 35908 ft | 357 kts | 258° |
| 2026-05-07 22:37 | 41.79909 | -90.23376 | 35904 ft | 357 kts | 258° |
| 2026-05-07 22:38 | 41.78643 | -90.29820 | 35905 ft | 357 kts | 258° |
| 2026-05-07 22:38 | 41.77374 | -90.36254 | 35906 ft | 357 kts | 258° |
| 2026-05-07 22:39 | 41.76107 | -90.42656 | 35904 ft | 357 kts | 258° |
| 2026-05-07 22:39 | 41.74833 | -90.49075 | 35907 ft | 357 kts | 257° |
| 2026-05-07 22:40 | 41.73553 | -90.55508 | 35910 ft | 357 kts | 257° |
| 2026-05-07 22:40 | 41.72273 | -90.61920 | 35908 ft | 357 kts | 257° |
| 2026-05-07 22:41 | 41.70984 | -90.68353 | 35908 ft | 357 kts | 257° |
| 2026-05-07 22:41 | 41.69702 | -90.74730 | 35907 ft | 357 kts | 257° |
| 2026-05-07 22:42 | 41.68409 | -90.81144 | 35913 ft | 357 kts | 257° |
| 2026-05-07 22:42 | 41.67112 | -90.87557 | 35912 ft | 357 kts | 257° |
| 2026-05-07 22:43 | 41.65810 | -90.93971 | 35912 ft | 357 kts | 257° |
| 2026-05-07 22:43 | 41.64512 | -91.00350 | 35915 ft | 357 kts | 257° |
| 2026-05-07 22:44 | 41.63204 | -91.06754 | 35919 ft | 357 kts | 257° |
| 2026-05-07 22:44 | 41.61901 | -91.13115 | 35918 ft | 357 kts | 257° |
| 2026-05-07 22:45 | 41.60588 | -91.19509 | 35918 ft | 357 kts | 257° |
| 2026-05-07 22:45 | 41.59270 | -91.25906 | 35920 ft | 356 kts | 257° |
| 2026-05-07 22:46 | 41.57952 | -91.32283 | 35919 ft | 356 kts | 257° |
| 2026-05-07 22:46 | 41.56629 | -91.38666 | 35919 ft | 356 kts | 257° |
| 2026-05-07 22:47 | 41.55302 | -91.45047 | 35915 ft | 356 kts | 256° |
| 2026-05-07 22:47 | 41.53972 | -91.51421 | 35916 ft | 356 kts | 256° |
| 2026-05-07 22:48 | 41.52643 | -91.57772 | 35916 ft | 357 kts | 256° |
| 2026-05-07 22:48 | 41.51653 | -91.64248 | 35918 ft | 355 kts | 262° |
| 2026-05-07 22:49 | 41.50990 | -91.70780 | 35920 ft | 356 kts | 263° |
| 2026-05-07 22:49 | 41.50387 | -91.77295 | 35918 ft | 356 kts | 263° |
| 2026-05-07 22:50 | 41.49781 | -91.83850 | 35912 ft | 356 kts | 263° |
| 2026-05-07 22:50 | 41.49161 | -91.90411 | 35910 ft | 356 kts | 263° |
| 2026-05-07 22:51 | 41.48538 | -91.96929 | 35910 ft | 356 kts | 263° |
| 2026-05-07 22:51 | 41.47906 | -92.03481 | 35904 ft | 356 kts | 263° |
| 2026-05-07 22:52 | 41.47274 | -92.10005 | 35910 ft | 356 kts | 263° |
| 2026-05-07 22:52 | 41.46634 | -92.16567 | 35905 ft | 356 kts | 263° |
| 2026-05-07 22:53 | 41.45992 | -92.23114 | 35905 ft | 356 kts | 262° |
| 2026-05-07 22:53 | 41.45346 | -92.29662 | 35905 ft | 356 kts | 262° |
| 2026-05-07 22:54 | 41.44696 | -92.36208 | 35903 ft | 356 kts | 262° |
| 2026-05-07 22:54 | 41.44042 | -92.42761 | 35904 ft | 356 kts | 262° |
| 2026-05-07 22:55 | 41.43389 | -92.49272 | 35903 ft | 356 kts | 262° |
| 2026-05-07 22:55 | 41.42726 | -92.55827 | 35903 ft | 357 kts | 262° |
| 2026-05-07 22:56 | 41.42062 | -92.62359 | 35902 ft | 357 kts | 262° |
| 2026-05-07 22:56 | 41.41391 | -92.68915 | 35898 ft | 357 kts | 262° |
| 2026-05-07 22:57 | 41.40716 | -92.75472 | 35896 ft | 357 kts | 262° |
| 2026-05-07 22:57 | 41.40040 | -92.82011 | 35896 ft | 357 kts | 262° |
| 2026-05-07 22:58 | 41.39358 | -92.88565 | 35897 ft | 357 kts | 262° |
| 2026-05-07 22:58 | 41.38677 | -92.95070 | 35896 ft | 357 kts | 262° |
| 2026-05-07 22:59 | 41.37990 | -93.01606 | 35897 ft | 357 kts | 262° |
| 2026-05-07 22:59 | 41.37296 | -93.08161 | 35877 ft | 357 kts | 262° |
| 2026-05-07 23:00 | 41.36600 | -93.14704 | 35878 ft | 357 kts | 262° |
| 2026-05-07 23:00 | 41.35899 | -93.21255 | 35880 ft | 357 kts | 262° |
| 2026-05-07 23:01 | 41.35200 | -93.27755 | 35882 ft | 357 kts | 261° |
| 2026-05-07 23:01 | 41.34492 | -93.34295 | 35883 ft | 357 kts | 261° |
| 2026-05-07 23:02 | 41.33781 | -93.40835 | 35881 ft | 357 kts | 261° |
| 2026-05-07 23:02 | 41.33067 | -93.47368 | 35876 ft | 357 kts | 261° |
| 2026-05-07 23:03 | 41.32352 | -93.53872 | 35875 ft | 357 kts | 261° |
| 2026-05-07 23:03 | 41.31630 | -93.60404 | 35876 ft | 357 kts | 261° |
| 2026-05-07 23:04 | 41.31022 | -93.65879 | 35874 ft | 357 kts | 261° |
| 2026-05-07 23:04 | 41.30293 | -93.72410 | 35875 ft | 357 kts | 261° |
| 2026-05-07 23:05 | 41.29564 | -93.78903 | 35876 ft | 357 kts | 261° |
| 2026-05-07 23:05 | 41.29196 | -93.82164 | 35602 ft | 357 kts | 264° |
| 2026-05-07 23:05 | 41.28826 | -93.85422 | 35796 ft | 355 kts | 264° |
| 2026-05-07 23:06 | 41.28085 | -93.91972 | 35877 ft | 361 kts | 264° |
| 2026-05-07 23:06 | 41.27329 | -93.98648 | 35880 ft | 368 kts | 264° |
| 2026-05-07 23:07 | 41.26550 | -94.05454 | 35873 ft | 376 kts | 264° |
| 2026-05-07 23:07 | 41.25756 | -94.12346 | 35868 ft | 384 kts | 264° |
| 2026-05-07 23:08 | 41.24940 | -94.19377 | 35864 ft | 384 kts | 263° |
| 2026-05-07 23:08 | 41.24121 | -94.26398 | 35863 ft | 384 kts | 263° |
| 2026-05-07 23:09 | 41.23299 | -94.33407 | 35860 ft | 384 kts | 263° |
| 2026-05-07 23:09 | 41.22477 | -94.40398 | 35860 ft | 384 kts | 263° |
| 2026-05-07 23:10 | 41.21650 | -94.47382 | 35860 ft | 384 kts | 263° |
| 2026-05-07 23:10 | 41.20816 | -94.54390 | 35862 ft | 384 kts | 263° |
| 2026-05-07 23:11 | 41.19979 | -94.61386 | 35865 ft | 383 kts | 263° |
| 2026-05-07 23:11 | 41.19137 | -94.68387 | 35866 ft | 383 kts | 263° |
| 2026-05-07 23:12 | 41.18291 | -94.75387 | 35868 ft | 384 kts | 263° |
| 2026-05-07 23:12 | 41.17447 | -94.82328 | 35864 ft | 383 kts | 263° |
| 2026-05-07 23:13 | 41.16593 | -94.89319 | 35863 ft | 383 kts | 263° |
| 2026-05-07 23:13 | 41.15733 | -94.96315 | 35860 ft | 383 kts | 263° |
| 2026-05-07 23:14 | 41.14871 | -95.03300 | 35855 ft | 383 kts | 263° |
| 2026-05-07 23:14 | 41.14009 | -95.10240 | 35850 ft | 383 kts | 263° |
| 2026-05-07 23:15 | 41.13139 | -95.17216 | 35848 ft | 383 kts | 263° |
| 2026-05-07 23:15 | 41.12266 | -95.24189 | 35845 ft | 383 kts | 263° |
| 2026-05-07 23:16 | 41.11389 | -95.31143 | 35843 ft | 383 kts | 263° |
| 2026-05-07 23:16 | 41.10506 | -95.38118 | 35846 ft | 383 kts | 263° |
| 2026-05-07 23:17 | 41.09619 | -95.45086 | 35849 ft | 383 kts | 263° |
| 2026-05-07 23:17 | 41.08730 | -95.52040 | 35849 ft | 383 kts | 263° |
| 2026-05-07 23:18 | 41.07840 | -95.58962 | 35859 ft | 382 kts | 263° |
| 2026-05-07 23:18 | 41.06943 | -95.65907 | 35856 ft | 382 kts | 263° |
| 2026-05-07 23:19 | 41.06041 | -95.72850 | 35855 ft | 382 kts | 263° |
| 2026-05-07 23:19 | 41.05135 | -95.79803 | 35849 ft | 382 kts | 263° |
| 2026-05-07 23:20 | 41.04225 | -95.86742 | 35854 ft | 382 kts | 262° |
| 2026-05-07 23:20 | 41.03312 | -95.93671 | 35875 ft | 382 kts | 263° |
| 2026-05-07 23:21 | 41.02400 | -96.00558 | 35870 ft | 382 kts | 262° |
| 2026-05-07 23:21 | 41.01477 | -96.07502 | 35870 ft | 382 kts | 262° |
| 2026-05-07 23:22 | 41.00551 | -96.14431 | 35863 ft | 382 kts | 262° |
| 2026-05-07 23:22 | 40.99625 | -96.21327 | 35872 ft | 382 kts | 262° |
| 2026-05-07 23:23 | 40.98692 | -96.28250 | 35872 ft | 382 kts | 262° |
| 2026-05-07 23:23 | 40.97754 | -96.35168 | 35870 ft | 381 kts | 262° |
| 2026-05-07 23:24 | 40.96813 | -96.42076 | 35866 ft | 382 kts | 262° |
| 2026-05-07 23:24 | 40.95868 | -96.48987 | 35866 ft | 382 kts | 262° |
| 2026-05-07 23:25 | 40.94917 | -96.55904 | 35868 ft | 382 kts | 262° |
| 2026-05-07 23:25 | 40.93964 | -96.62808 | 35866 ft | 382 kts | 262° |
| 2026-05-07 23:26 | 40.93011 | -96.69676 | 35868 ft | 382 kts | 262° |
| 2026-05-07 23:26 | 40.92117 | -96.76588 | 35870 ft | 381 kts | 264° |
| 2026-05-07 23:27 | 40.91134 | -96.87018 | 35868 ft | 381 kts | 265° |
| 2026-05-07 23:27 | 40.90506 | -96.93965 | 35867 ft | 381 kts | 265° |
| 2026-05-07 23:28 | 40.89853 | -97.00914 | 35870 ft | 381 kts | 265° |
| 2026-05-07 23:28 | 40.89188 | -97.07836 | 35872 ft | 381 kts | 265° |
| 2026-05-07 23:29 | 40.88513 | -97.14786 | 35871 ft | 381 kts | 265° |
| 2026-05-07 23:29 | 40.87838 | -97.21705 | 35875 ft | 381 kts | 265° |
| 2026-05-07 23:30 | 40.87157 | -97.28652 | 35877 ft | 381 kts | 265° |
| 2026-05-07 23:30 | 40.86471 | -97.35599 | 35876 ft | 381 kts | 265° |
| 2026-05-07 23:31 | 40.85780 | -97.42556 | 35876 ft | 381 kts | 265° |
| 2026-05-07 23:31 | 40.85087 | -97.49495 | 35875 ft | 381 kts | 265° |
| 2026-05-07 23:32 | 40.84388 | -97.56440 | 35877 ft | 381 kts | 265° |
| 2026-05-07 23:32 | 40.83686 | -97.63378 | 35878 ft | 381 kts | 265° |
| 2026-05-07 23:33 | 40.82978 | -97.70329 | 35876 ft | 381 kts | 265° |
| 2026-05-07 23:33 | 40.82271 | -97.77231 | 35878 ft | 381 kts | 265° |
| 2026-05-07 23:34 | 40.81557 | -97.84164 | 35877 ft | 381 kts | 265° |
| 2026-05-07 23:34 | 40.80838 | -97.91099 | 35878 ft | 381 kts | 265° |
| 2026-05-07 23:35 | 40.80114 | -97.98040 | 35878 ft | 381 kts | 265° |
| 2026-05-07 23:35 | 40.79390 | -98.04939 | 35878 ft | 381 kts | 265° |
| 2026-05-07 23:36 | 40.78658 | -98.11883 | 35879 ft | 381 kts | 265° |
| 2026-05-07 23:36 | 40.77920 | -98.18834 | 35876 ft | 382 kts | 264° |
| 2026-05-07 23:37 | 40.77180 | -98.25765 | 35883 ft | 382 kts | 264° |
| 2026-05-07 23:37 | 40.76435 | -98.32705 | 35876 ft | 382 kts | 264° |
| 2026-05-07 23:38 | 40.75688 | -98.39618 | 35878 ft | 382 kts | 264° |
| 2026-05-07 23:38 | 40.74933 | -98.46563 | 35876 ft | 383 kts | 264° |
| 2026-05-07 23:39 | 40.74172 | -98.53523 | 35876 ft | 383 kts | 264° |
| 2026-05-07 23:39 | 40.73407 | -98.60484 | 35875 ft | 383 kts | 264° |
| 2026-05-07 23:40 | 40.72637 | -98.67445 | 35873 ft | 384 kts | 264° |
| 2026-05-07 23:40 | 40.71863 | -98.74403 | 35892 ft | 384 kts | 264° |
| 2026-05-07 23:41 | 40.71088 | -98.81332 | 35880 ft | 384 kts | 264° |
| 2026-05-07 23:41 | 40.70303 | -98.88316 | 35893 ft | 385 kts | 264° |
| 2026-05-07 23:42 | 40.69514 | -98.95289 | 35881 ft | 385 kts | 264° |
| 2026-05-07 23:42 | 40.68721 | -99.02269 | 35891 ft | 385 kts | 264° |
| 2026-05-07 23:43 | 40.67922 | -99.09256 | 35883 ft | 386 kts | 264° |
| 2026-05-07 23:43 | 40.67117 | -99.16253 | 35885 ft | 386 kts | 264° |
| 2026-05-07 23:44 | 40.66308 | -99.23253 | 35879 ft | 387 kts | 264° |
| 2026-05-07 23:44 | 40.65493 | -99.30261 | 35863 ft | 387 kts | 264° |
| 2026-05-07 23:45 | 40.64679 | -99.37224 | 35864 ft | 387 kts | 264° |
| 2026-05-07 23:45 | 40.63854 | -99.44248 | 35865 ft | 388 kts | 264° |
| 2026-05-07 23:46 | 40.63025 | -99.51264 | 35863 ft | 388 kts | 264° |
| 2026-05-07 23:46 | 40.62191 | -99.58285 | 35873 ft | 388 kts | 264° |
| 2026-05-07 23:47 | 40.61351 | -99.65322 | 35877 ft | 389 kts | 264° |
| 2026-05-07 23:47 | 40.60511 | -99.72321 | 35876 ft | 389 kts | 264° |
| 2026-05-07 23:48 | 40.59660 | -99.79367 | 35876 ft | 389 kts | 264° |
| 2026-05-07 23:48 | 40.58807 | -99.86401 | 35871 ft | 389 kts | 264° |
| 2026-05-07 23:49 | 40.57947 | -99.93446 | 35871 ft | 390 kts | 264° |
| 2026-05-07 23:49 | 40.57089 | -100.00449 | 35868 ft | 390 kts | 264° |
| 2026-05-07 23:50 | 40.56222 | -100.07490 | 35865 ft | 390 kts | 264° |
| 2026-05-07 23:50 | 40.55494 | -100.13361 | 35862 ft | 390 kts | 264° |
| 2026-05-07 23:51 | 40.54618 | -100.20407 | 35861 ft | 390 kts | 264° |
| 2026-05-07 23:51 | 40.53736 | -100.27458 | 35860 ft | 391 kts | 264° |
| 2026-05-07 23:52 | 40.52849 | -100.34519 | 35860 ft | 391 kts | 264° |
| 2026-05-07 23:52 | 40.51964 | -100.41517 | 35857 ft | 391 kts | 264° |
| 2026-05-07 23:53 | 40.51068 | -100.48576 | 35866 ft | 391 kts | 264° |
| 2026-05-07 23:53 | 40.50167 | -100.55635 | 35866 ft | 391 kts | 264° |
| 2026-05-07 23:54 | 40.49261 | -100.62699 | 35866 ft | 391 kts | 264° |
| 2026-05-07 23:54 | 40.48351 | -100.69758 | 35865 ft | 391 kts | 264° |
| 2026-05-07 23:55 | 40.47437 | -100.76811 | 35868 ft | 391 kts | 264° |
| 2026-05-07 23:55 | 40.46525 | -100.83823 | 35868 ft | 392 kts | 264° |
| 2026-05-07 23:56 | 40.45603 | -100.90868 | 35869 ft | 392 kts | 264° |
| 2026-05-07 23:56 | 40.44665 | -100.97922 | 35870 ft | 392 kts | 264° |
| 2026-05-07 23:57 | 40.43713 | -101.04968 | 35873 ft | 392 kts | 264° |
| 2026-05-07 23:57 | 40.42756 | -101.12013 | 35871 ft | 392 kts | 264° |
| 2026-05-07 23:58 | 40.41801 | -101.19018 | 35879 ft | 392 kts | 264° |
| 2026-05-07 23:58 | 40.40839 | -101.26048 | 35885 ft | 392 kts | 264° |
| 2026-05-07 23:59 | 40.39869 | -101.33103 | 35889 ft | 392 kts | 264° |
| 2026-05-07 23:59 | 40.38898 | -101.40130 | 35889 ft | 392 kts | 264° |
| 2026-05-08 00:00 | 40.37921 | -101.47174 | 35888 ft | 392 kts | 264° |
| 2026-05-08 00:00 | 40.36941 | -101.54199 | 35889 ft | 392 kts | 264° |
| 2026-05-08 00:01 | 40.35956 | -101.61232 | 35891 ft | 392 kts | 264° |
| 2026-05-08 00:01 | 40.34974 | -101.68219 | 35890 ft | 392 kts | 264° |
| 2026-05-08 00:02 | 40.33979 | -101.75251 | 35887 ft | 392 kts | 264° |
| 2026-05-08 00:02 | 40.32980 | -101.82291 | 35885 ft | 392 kts | 264° |
| 2026-05-08 00:03 | 40.31978 | -101.89311 | 35878 ft | 392 kts | 264° |
| 2026-05-08 00:03 | 40.30979 | -101.96283 | 35873 ft | 392 kts | 264° |
| 2026-05-08 00:04 | 40.29970 | -102.03296 | 35869 ft | 391 kts | 264° |
| 2026-05-08 00:04 | 40.28958 | -102.10282 | 35866 ft | 388 kts | 264° |
| 2026-05-08 00:05 | 40.27949 | -102.17232 | 35873 ft | 388 kts | 264° |
| 2026-05-08 00:05 | 40.26942 | -102.24142 | 35875 ft | 388 kts | 264° |
| 2026-05-08 00:06 | 40.25926 | -102.31083 | 35866 ft | 388 kts | 264° |
| 2026-05-08 00:06 | 40.24904 | -102.38031 | 35868 ft | 388 kts | 264° |
| 2026-05-08 00:07 | 40.23877 | -102.44980 | 35877 ft | 388 kts | 264° |
| 2026-05-08 00:07 | 40.22846 | -102.51921 | 35866 ft | 388 kts | 264° |
| 2026-05-08 00:08 | 40.21813 | -102.58855 | 35866 ft | 388 kts | 264° |
| 2026-05-08 00:08 | 40.20781 | -102.65750 | 35877 ft | 388 kts | 264° |
| 2026-05-08 00:09 | 40.19736 | -102.72696 | 35874 ft | 388 kts | 264° |
| 2026-05-08 00:09 | 40.18689 | -102.79634 | 35891 ft | 389 kts | 264° |
| 2026-05-08 00:10 | 40.17637 | -102.86569 | 35899 ft | 389 kts | 264° |
| 2026-05-08 00:10 | 40.16589 | -102.93451 | 35914 ft | 389 kts | 264° |
| 2026-05-08 00:11 | 40.15527 | -103.00393 | 35929 ft | 389 kts | 264° |
| 2026-05-08 00:11 | 40.14464 | -103.07317 | 35945 ft | 389 kts | 264° |
| 2026-05-08 00:12 | 40.13396 | -103.14242 | 35952 ft | 389 kts | 264° |
| 2026-05-08 00:12 | 40.12322 | -103.21182 | 35950 ft | 389 kts | 264° |
| 2026-05-08 00:13 | 40.11251 | -103.28072 | 35951 ft | 389 kts | 264° |
| 2026-05-08 00:13 | 40.10169 | -103.34997 | 35944 ft | 389 kts | 264° |
| 2026-05-08 00:14 | 40.09085 | -103.41914 | 35929 ft | 389 kts | 264° |
| 2026-05-08 00:14 | 40.07995 | -103.48836 | 35912 ft | 389 kts | 264° |
| 2026-05-08 00:15 | 40.06898 | -103.55773 | 35895 ft | 389 kts | 264° |
| 2026-05-08 00:15 | 40.05801 | -103.62683 | 35889 ft | 389 kts | 264° |
| 2026-05-08 00:16 | 40.04706 | -103.69555 | 35885 ft | 389 kts | 264° |
| 2026-05-08 00:16 | 40.03600 | -103.76467 | 35884 ft | 389 kts | 264° |
| 2026-05-08 00:17 | 40.02491 | -103.83371 | 35882 ft | 389 kts | 264° |
| 2026-05-08 00:17 | 40.01375 | -103.90288 | 35877 ft | 389 kts | 263° |
| 2026-05-08 00:18 | 40.00263 | -103.97154 | 35867 ft | 389 kts | 263° |
| 2026-05-08 00:18 | 39.99139 | -104.04069 | 35868 ft | 390 kts | 263° |
| 2026-05-08 00:19 | 39.98011 | -104.10980 | 35870 ft | 390 kts | 263° |
| 2026-05-08 00:19 | 39.96876 | -104.17901 | 35885 ft | 390 kts | 263° |
| 2026-05-08 00:20 | 39.95737 | -104.24824 | 35909 ft | 390 kts | 263° |
| 2026-05-08 00:20 | 39.94600 | -104.31712 | 35934 ft | 391 kts | 263° |
| 2026-05-08 00:21 | 39.93453 | -104.38630 | 35958 ft | 391 kts | 263° |
| 2026-05-08 00:21 | 39.92301 | -104.45549 | 35978 ft | 391 kts | 263° |
| 2026-05-08 00:22 | 39.91140 | -104.52496 | 35974 ft | 392 kts | 263° |
| 2026-05-08 00:22 | 39.89976 | -104.59431 | 35987 ft | 392 kts | 263° |
| 2026-05-08 00:23 | 39.88755 | -104.66354 | 35992 ft | 393 kts | 262° |
| 2026-05-08 00:23 | 39.87438 | -104.73259 | 35986 ft | 393 kts | 262° |
| 2026-05-08 00:24 | 39.86102 | -104.80161 | 35985 ft | 392 kts | 262° |
| 2026-05-08 00:24 | 39.84781 | -104.87016 | 35969 ft | 392 kts | 262° |
| 2026-05-08 00:25 | 39.83454 | -104.93910 | 35977 ft | 392 kts | 262° |
| 2026-05-08 00:25 | 39.82130 | -105.00778 | 35988 ft | 391 kts | 262° |
| 2026-05-08 00:26 | 39.80799 | -105.07653 | 35993 ft | 391 kts | 262° |
| 2026-05-08 00:26 | 39.79468 | -105.14508 | 35994 ft | 391 kts | 262° |
| 2026-05-08 00:27 | 39.78133 | -105.21362 | 35986 ft | 390 kts | 262° |
| 2026-05-08 00:27 | 39.76803 | -105.28157 | 35986 ft | 390 kts | 261° |
| 2026-05-08 00:28 | 39.75463 | -105.34983 | 35988 ft | 390 kts | 262° |
| 2026-05-08 00:28 | 39.74118 | -105.41820 | 35996 ft | 391 kts | 261° |
| 2026-05-08 00:29 | 39.72767 | -105.48671 | 36020 ft | 392 kts | 262° |
| 2026-05-08 00:29 | 39.71411 | -105.55512 | 36041 ft | 394 kts | 261° |
| 2026-05-08 00:30 | 39.70038 | -105.62417 | 36054 ft | 395 kts | 261° |
| 2026-05-08 00:30 | 39.68654 | -105.69348 | 36079 ft | 398 kts | 261° |
| 2026-05-08 00:31 | 39.67259 | -105.76327 | 36079 ft | 399 kts | 261° |
| 2026-05-08 00:31 | 39.65866 | -105.83254 | 36083 ft | 398 kts | 261° |
| 2026-05-08 00:32 | 39.64459 | -105.90220 | 36104 ft | 398 kts | 261° |
| 2026-05-08 00:32 | 39.63053 | -105.97170 | 36106 ft | 399 kts | 261° |
| 2026-05-08 00:33 | 39.61640 | -106.04134 | 36102 ft | 399 kts | 261° |
| 2026-05-08 00:33 | 39.60231 | -106.11051 | 36098 ft | 399 kts | 261° |
| 2026-05-08 00:34 | 39.58801 | -106.18051 | 36092 ft | 399 kts | 261° |
| 2026-05-08 00:34 | 39.57382 | -106.24970 | 36099 ft | 400 kts | 261° |
| 2026-05-08 00:35 | 39.55949 | -106.31938 | 36114 ft | 400 kts | 261° |
| 2026-05-08 00:35 | 39.54511 | -106.38910 | 36119 ft | 401 kts | 261° |
| 2026-05-08 00:36 | 39.53064 | -106.45900 | 36104 ft | 401 kts | 262° |
| 2026-05-08 00:36 | 39.51626 | -106.52828 | 36094 ft | 400 kts | 261° |
| 2026-05-08 00:37 | 39.50171 | -106.59807 | 36103 ft | 401 kts | 261° |
| 2026-05-08 00:38 | 39.47978 | -106.70284 | 36098 ft | 401 kts | 261° |
| 2026-05-08 00:38 | 39.46761 | -106.76078 | 36093 ft | 402 kts | 261° |
| 2026-05-08 00:39 | 39.45052 | -106.84188 | 36087 ft | 402 kts | 261° |
| 2026-05-08 00:39 | 39.43799 | -106.90030 | 36080 ft | 403 kts | 260° |
| 2026-05-08 00:40 | 39.42134 | -106.96918 | 36095 ft | 404 kts | 258° |
| 2026-05-08 00:40 | 39.40372 | -107.03849 | 36081 ft | 405 kts | 258° |
| 2026-05-08 00:41 | 39.38613 | -107.10780 | 36065 ft | 406 kts | 259° |
| 2026-05-08 00:41 | 39.36872 | -107.17686 | 36044 ft | 406 kts | 259° |
| 2026-05-08 00:42 | 39.35126 | -107.24617 | 36019 ft | 406 kts | 259° |
| 2026-05-08 00:42 | 39.33371 | -107.31565 | 35997 ft | 406 kts | 259° |
| 2026-05-08 00:43 | 39.31611 | -107.38508 | 35999 ft | 407 kts | 259° |
| 2026-05-08 00:43 | 39.29846 | -107.45453 | 36011 ft | 407 kts | 258° |
| 2026-05-08 00:44 | 39.28078 | -107.52388 | 36019 ft | 406 kts | 258° |
| 2026-05-08 00:44 | 39.26303 | -107.59331 | 36021 ft | 407 kts | 258° |
| 2026-05-08 00:45 | 39.24534 | -107.66235 | 36028 ft | 408 kts | 258° |
| 2026-05-08 00:45 | 39.22745 | -107.73188 | 36023 ft | 408 kts | 258° |
| 2026-05-08 00:46 | 39.20953 | -107.80138 | 36020 ft | 408 kts | 258° |
| 2026-05-08 00:46 | 39.19154 | -107.87097 | 36000 ft | 408 kts | 258° |
| 2026-05-08 00:47 | 39.17350 | -107.94060 | 35998 ft | 409 kts | 258° |
| 2026-05-08 00:47 | 39.15550 | -108.00977 | 35993 ft | 409 kts | 258° |
| 2026-05-08 00:48 | 39.13736 | -108.07933 | 35987 ft | 410 kts | 258° |
| 2026-05-08 00:48 | 39.11915 | -108.14898 | 35991 ft | 410 kts | 258° |
| 2026-05-08 00:49 | 39.10088 | -108.21867 | 36001 ft | 410 kts | 258° |
| 2026-05-08 00:49 | 39.08271 | -108.28780 | 36012 ft | 411 kts | 258° |
| 2026-05-08 00:50 | 39.06429 | -108.35766 | 36025 ft | 411 kts | 258° |
| 2026-05-08 00:50 | 39.04584 | -108.42744 | 36038 ft | 412 kts | 258° |
| 2026-05-08 00:51 | 39.02733 | -108.49727 | 36041 ft | 412 kts | 258° |
| 2026-05-08 00:51 | 39.00877 | -108.56707 | 36034 ft | 413 kts | 258° |
| 2026-05-08 00:52 | 38.99013 | -108.63696 | 36018 ft | 413 kts | 258° |
| 2026-05-08 00:52 | 38.97157 | -108.70639 | 36004 ft | 413 kts | 258° |
| 2026-05-08 00:53 | 38.95278 | -108.77649 | 35986 ft | 414 kts | 258° |
| 2026-05-08 00:53 | 38.93400 | -108.84635 | 35970 ft | 414 kts | 258° |
| 2026-05-08 00:54 | 38.91510 | -108.91649 | 35951 ft | 415 kts | 257° |
| 2026-05-08 00:54 | 38.89626 | -108.98622 | 35955 ft | 416 kts | 257° |
| 2026-05-08 00:55 | 38.87723 | -109.05642 | 35948 ft | 416 kts | 257° |
| 2026-05-08 00:55 | 38.85813 | -109.12664 | 35941 ft | 417 kts | 257° |
| 2026-05-08 00:56 | 38.83894 | -109.19706 | 35930 ft | 418 kts | 257° |
| 2026-05-08 00:56 | 38.81974 | -109.26738 | 35932 ft | 418 kts | 257° |
| 2026-05-08 00:57 | 38.80043 | -109.33787 | 35936 ft | 419 kts | 257° |
| 2026-05-08 00:57 | 38.78107 | -109.40831 | 35961 ft | 419 kts | 257° |
| 2026-05-08 00:58 | 38.76164 | -109.47882 | 35977 ft | 420 kts | 257° |
| 2026-05-08 00:58 | 38.74228 | -109.54890 | 35991 ft | 420 kts | 257° |
| 2026-05-08 00:59 | 38.72270 | -109.61958 | 35995 ft | 421 kts | 256° |
| 2026-05-08 00:59 | 38.70309 | -109.69016 | 36010 ft | 421 kts | 256° |
| 2026-05-08 01:00 | 38.68342 | -109.76078 | 36001 ft | 421 kts | 256° |
| 2026-05-08 01:00 | 38.66368 | -109.83146 | 35996 ft | 421 kts | 256° |
| 2026-05-08 01:01 | 38.64404 | -109.90159 | 35981 ft | 421 kts | 256° |
| 2026-05-08 01:01 | 38.62421 | -109.97220 | 35960 ft | 422 kts | 256° |
| 2026-05-08 01:02 | 38.60431 | -110.04291 | 35946 ft | 422 kts | 256° |
| 2026-05-08 01:02 | 38.58434 | -110.11366 | 35923 ft | 423 kts | 256° |
| 2026-05-08 01:03 | 38.56447 | -110.18388 | 35907 ft | 423 kts | 256° |
| 2026-05-08 01:03 | 38.54438 | -110.25467 | 35912 ft | 423 kts | 256° |
| 2026-05-08 01:04 | 38.52426 | -110.32536 | 35932 ft | 424 kts | 256° |
| 2026-05-08 01:04 | 38.50405 | -110.39617 | 35957 ft | 424 kts | 256° |
| 2026-05-08 01:05 | 38.48378 | -110.46702 | 35979 ft | 425 kts | 256° |
| 2026-05-08 01:05 | 38.46344 | -110.53794 | 36005 ft | 426 kts | 256° |
| 2026-05-08 01:06 | 38.44299 | -110.60908 | 36027 ft | 427 kts | 255° |
| 2026-05-08 01:06 | 38.42183 | -110.67968 | 36023 ft | 432 kts | 250° |
| 2026-05-08 01:07 | 38.38926 | -110.74484 | 36025 ft | 440 kts | 238° |
| 2026-05-08 01:07 | 38.35199 | -110.80714 | 36022 ft | 442 kts | 237° |
| 2026-05-08 01:08 | 38.31439 | -110.86927 | 35996 ft | 442 kts | 237° |
| 2026-05-08 01:08 | 38.27675 | -110.93136 | 35976 ft | 443 kts | 237° |
| 2026-05-08 01:09 | 38.23908 | -110.99339 | 35954 ft | 443 kts | 237° |
| 2026-05-08 01:09 | 38.20160 | -111.05498 | 35950 ft | 443 kts | 237° |
| 2026-05-08 01:10 | 38.16389 | -111.11685 | 35948 ft | 443 kts | 237° |
| 2026-05-08 01:10 | 38.12607 | -111.17878 | 35960 ft | 443 kts | 237° |
| 2026-05-08 01:11 | 38.08820 | -111.24068 | 35966 ft | 443 kts | 237° |
| 2026-05-08 01:11 | 38.05033 | -111.30245 | 35981 ft | 443 kts | 236° |
| 2026-05-08 01:12 | 38.01261 | -111.36387 | 35979 ft | 443 kts | 236° |
| 2026-05-08 01:12 | 37.97445 | -111.42588 | 35984 ft | 443 kts | 236° |
| 2026-05-08 01:13 | 37.93669 | -111.48713 | 35993 ft | 444 kts | 236° |
| 2026-05-08 01:13 | 37.89864 | -111.54874 | 35993 ft | 444 kts | 236° |
| 2026-05-08 01:14 | 37.86054 | -111.61031 | 35989 ft | 444 kts | 236° |
| 2026-05-08 01:14 | 37.82240 | -111.67182 | 35987 ft | 444 kts | 236° |
| 2026-05-08 01:15 | 37.78418 | -111.73334 | 36000 ft | 445 kts | 236° |
| 2026-05-08 01:15 | 37.74589 | -111.79488 | 36043 ft | 445 kts | 235° |
| 2026-05-08 01:16 | 37.70774 | -111.85607 | 36078 ft | 446 kts | 235° |
| 2026-05-08 01:16 | 37.66940 | -111.91745 | 36111 ft | 445 kts | 235° |
| 2026-05-08 01:17 | 37.63094 | -111.97891 | 36140 ft | 446 kts | 235° |
| 2026-05-08 01:17 | 37.59256 | -112.04013 | 36148 ft | 447 kts | 235° |
| 2026-05-08 01:18 | 37.55399 | -112.10155 | 36137 ft | 447 kts | 234° |
| 2026-05-08 01:18 | 37.51756 | -112.16472 | 36110 ft | 445 kts | 240° |
| 2026-05-08 01:19 | 37.48377 | -112.23002 | 36077 ft | 445 kts | 240° |
| 2026-05-08 01:19 | 37.45002 | -112.29533 | 36030 ft | 445 kts | 240° |
| 2026-05-08 01:20 | 37.41616 | -112.36063 | 35985 ft | 445 kts | 240° |
| 2026-05-08 01:20 | 37.38228 | -112.42578 | 35965 ft | 446 kts | 240° |
| 2026-05-08 01:21 | 37.34828 | -112.49105 | 35966 ft | 446 kts | 240° |
| 2026-05-08 01:21 | 37.31420 | -112.55634 | 35961 ft | 447 kts | 240° |
| 2026-05-08 01:22 | 37.28003 | -112.62167 | 35962 ft | 448 kts | 240° |
| 2026-05-08 01:22 | 37.24578 | -112.68702 | 35953 ft | 448 kts | 240° |
| 2026-05-08 01:23 | 37.21165 | -112.75202 | 35968 ft | 449 kts | 240° |
| 2026-05-08 01:23 | 37.17711 | -112.81768 | 35988 ft | 453 kts | 240° |
| 2026-05-08 01:24 | 37.14232 | -112.88365 | 35969 ft | 454 kts | 240° |
| 2026-05-08 01:24 | 37.12485 | -112.91674 | 35733 ft | 455 kts | 240° |
| 2026-05-08 01:24 | 37.10733 | -112.94989 | 35501 ft | 456 kts | 240° |
| 2026-05-08 01:24 | 37.08980 | -112.98303 | 35272 ft | 457 kts | 240° |
| 2026-05-08 01:25 | 37.07221 | -113.01624 | 35038 ft | 457 kts | 240° |
| 2026-05-08 01:25 | 37.05464 | -113.04938 | 34803 ft | 457 kts | 240° |
| 2026-05-08 01:25 | 37.03701 | -113.08260 | 34565 ft | 457 kts | 240° |
| 2026-05-08 01:25 | 37.01961 | -113.11535 | 34328 ft | 456 kts | 240° |
| 2026-05-08 01:26 | 37.00185 | -113.14876 | 34079 ft | 454 kts | 240° |
| 2026-05-08 01:26 | 36.98460 | -113.18116 | 33803 ft | 453 kts | 240° |
| 2026-05-08 01:26 | 36.96711 | -113.21399 | 33514 ft | 451 kts | 240° |
| 2026-05-08 01:26 | 36.94971 | -113.24663 | 33228 ft | 449 kts | 240° |
| 2026-05-08 01:27 | 36.93243 | -113.27900 | 32950 ft | 447 kts | 240° |
| 2026-05-08 01:27 | 36.91521 | -113.31124 | 32621 ft | 445 kts | 240° |
| 2026-05-08 01:27 | 36.90385 | -113.33248 | 32435 ft | 443 kts | 239° |
| 2026-05-08 01:27 | 36.88678 | -113.36435 | 32041 ft | 438 kts | 239° |
| 2026-05-08 01:28 | 36.86988 | -113.39590 | 31535 ft | 436 kts | 240° |
| 2026-05-08 01:28 | 36.85305 | -113.42731 | 31019 ft | 435 kts | 239° |
| 2026-05-08 01:28 | 36.83626 | -113.45863 | 30493 ft | 434 kts | 239° |
| 2026-05-08 01:28 | 36.81946 | -113.48991 | 29963 ft | 433 kts | 239° |
| 2026-05-08 01:29 | 36.80271 | -113.52113 | 29360 ft | 432 kts | 239° |
| 2026-05-08 01:29 | 36.78603 | -113.55224 | 28830 ft | 429 kts | 239° |
| 2026-05-08 01:29 | 36.76968 | -113.58273 | 28291 ft | 427 kts | 239° |
| 2026-05-08 01:29 | 36.75322 | -113.61338 | 27747 ft | 425 kts | 239° |
| 2026-05-08 01:30 | 36.73676 | -113.64401 | 27196 ft | 424 kts | 239° |
| 2026-05-08 01:30 | 36.72033 | -113.67456 | 26628 ft | 423 kts | 239° |
| 2026-05-08 01:30 | 36.70399 | -113.70492 | 26082 ft | 421 kts | 239° |
| 2026-05-08 01:30 | 36.68768 | -113.73518 | 25532 ft | 421 kts | 239° |
| 2026-05-08 01:31 | 36.67135 | -113.76548 | 24980 ft | 420 kts | 239° |
| 2026-05-08 01:31 | 36.65504 | -113.79569 | 24415 ft | 419 kts | 239° |
| 2026-05-08 01:31 | 36.63879 | -113.82576 | 23864 ft | 419 kts | 239° |
| 2026-05-08 01:31 | 36.62251 | -113.85588 | 23254 ft | 419 kts | 239° |
| 2026-05-08 01:32 | 36.60635 | -113.88572 | 22888 ft | 411 kts | 239° |
| 2026-05-08 01:32 | 36.59065 | -113.91444 | 22479 ft | 405 kts | 237° |
| 2026-05-08 01:32 | 36.57389 | -113.94254 | 21916 ft | 403 kts | 235° |
| 2026-05-08 01:32 | 36.55685 | -113.97008 | 21390 ft | 400 kts | 235° |
| 2026-05-08 01:33 | 36.53989 | -113.99732 | 20889 ft | 397 kts | 235° |
| 2026-05-08 01:33 | 36.52303 | -114.02441 | 20383 ft | 394 kts | 235° |
| 2026-05-08 01:33 | 36.50633 | -114.05125 | 19892 ft | 391 kts | 235° |
| 2026-05-08 01:33 | 36.48978 | -114.07785 | 19409 ft | 388 kts | 235° |
| 2026-05-08 01:34 | 36.47336 | -114.10424 | 18936 ft | 384 kts | 235° |
| 2026-05-08 01:34 | 36.45705 | -114.13044 | 18462 ft | 381 kts | 235° |
| 2026-05-08 01:34 | 36.44088 | -114.15640 | 17983 ft | 378 kts | 235° |
| 2026-05-08 01:34 | 36.42482 | -114.18219 | 17434 ft | 376 kts | 235° |
| 2026-05-08 01:35 | 36.40889 | -114.20773 | 16936 ft | 373 kts | 235° |
| 2026-05-08 01:35 | 36.39297 | -114.23315 | 16329 ft | 372 kts | 234° |
| 2026-05-08 01:35 | 36.37723 | -114.25792 | 16001 ft | 357 kts | 234° |
| 2026-05-08 01:35 | 36.36215 | -114.28155 | 15800 ft | 343 kts | 234° |
| 2026-05-08 01:36 | 36.34760 | -114.30436 | 15600 ft | 333 kts | 234° |
| 2026-05-08 01:36 | 36.33328 | -114.32681 | 15200 ft | 330 kts | 234° |
| 2026-05-08 01:36 | 36.31906 | -114.34913 | 14766 ft | 330 kts | 234° |
| 2026-05-08 01:36 | 36.30505 | -114.37109 | 14360 ft | 328 kts | 234° |
| 2026-05-08 01:37 | 36.29094 | -114.39320 | 13960 ft | 326 kts | 234° |
| 2026-05-08 01:37 | 36.27687 | -114.41519 | 13555 ft | 324 kts | 234° |
| 2026-05-08 01:37 | 36.26288 | -114.43707 | 13148 ft | 322 kts | 234° |
| 2026-05-08 01:37 | 36.24894 | -114.45866 | 12741 ft | 319 kts | 233° |
| 2026-05-08 01:38 | 36.23508 | -114.47997 | 12329 ft | 317 kts | 233° |
| 2026-05-08 01:38 | 36.22125 | -114.50118 | 11926 ft | 314 kts | 233° |
| 2026-05-08 01:38 | 36.20755 | -114.52218 | 11527 ft | 312 kts | 233° |
| 2026-05-08 01:38 | 36.19395 | -114.54301 | 11125 ft | 310 kts | 233° |
| 2026-05-08 01:39 | 36.18047 | -114.56364 | 10767 ft | 307 kts | 234° |
| 2026-05-08 01:39 | 36.16710 | -114.58409 | 10398 ft | 304 kts | 234° |
| 2026-05-08 01:39 | 36.15390 | -114.60430 | 10037 ft | 301 kts | 234° |
| 2026-05-08 01:39 | 36.14077 | -114.62437 | 9689 ft | 299 kts | 234° |
| 2026-05-08 01:40 | 36.12790 | -114.64405 | 9304 ft | 296 kts | 233° |
| 2026-05-08 01:40 | 36.11497 | -114.66379 | 8920 ft | 294 kts | 233° |
| 2026-05-08 01:40 | 36.10219 | -114.68329 | 8529 ft | 291 kts | 233° |
| 2026-05-08 01:40 | 36.08944 | -114.70273 | 8126 ft | 289 kts | 233° |
| 2026-05-08 01:41 | 36.07786 | -114.72253 | 7882 ft | 279 kts | 244° |
| 2026-05-08 01:41 | 36.07295 | -114.74524 | 7385 ft | 275 kts | 267° |
| 2026-05-08 01:41 | 36.07356 | -114.76896 | 6953 ft | 275 kts | 274° |
| 2026-05-08 01:41 | 36.07402 | -114.79200 | 6755 ft | 260 kts | 270° |
| 2026-05-08 01:42 | 36.07388 | -114.81375 | 6586 ft | 245 kts | 270° |
| 2026-05-08 01:42 | 36.07378 | -114.83440 | 6402 ft | 234 kts | 270° |
| 2026-05-08 01:42 | 36.07382 | -114.85399 | 6272 ft | 226 kts | 270° |
| 2026-05-08 01:42 | 36.07384 | -114.87337 | 6010 ft | 220 kts | 269° |
| 2026-05-08 01:43 | 36.07382 | -114.89194 | 5668 ft | 219 kts | 269° |
| 2026-05-08 01:43 | 36.07380 | -114.91068 | 5341 ft | 218 kts | 269° |
| 2026-05-08 01:43 | 36.07379 | -114.92933 | 5037 ft | 215 kts | 269° |
| 2026-05-08 01:43 | 36.07378 | -114.94754 | 4764 ft | 208 kts | 268° |
| 2026-05-08 01:44 | 36.07377 | -114.96512 | 4513 ft | 200 kts | 269° |
| 2026-05-08 01:44 | 36.07376 | -114.98196 | 4278 ft | 194 kts | 269° |
| 2026-05-08 01:44 | 36.07375 | -114.99823 | 4044 ft | 184 kts | 269° |
| 2026-05-08 01:44 | 36.07373 | -115.01355 | 3827 ft | 172 kts | 269° |
| 2026-05-08 01:45 | 36.07373 | -115.02800 | 3603 ft | 163 kts | 269° |
| 2026-05-08 01:45 | 36.07372 | -115.04159 | 3393 ft | 152 kts | 268° |
| 2026-05-08 01:45 | 36.07371 | -115.05426 | 3135 ft | 143 kts | 269° |
| 2026-05-08 01:45 | 36.07369 | -115.06605 | 2964 ft | 134 kts | 269° |
| 2026-05-08 01:46 | 36.07368 | -115.07789 | 2871 ft | 143 kts | 270° |
| 2026-05-08 01:46 | 36.07367 | -115.09033 | 2701 ft | 145 kts | 271° |
| 2026-05-08 01:46 | 36.07366 | -115.10273 | 2496 ft | 144 kts | 271° |
| 2026-05-08 01:46 | 36.07366 | -115.11512 | 2294 ft | 143 kts | 271° |
| 2026-05-08 01:47 | 36.07365 | -115.12742 | 2107 ft | 143 kts | 270° |
| 2026-05-08 01:47 | 36.07364 | -115.13849 | 2099 ft | 106 kts | 269° |
| 2026-05-08 01:47 | 36.07379 | -115.14366 | 2120 ft | 37 kts | 285° |
| 2026-05-08 01:48 | 36.07463 | -115.14574 | 2126 ft | 0 kts | 300° |
| 2026-05-08 01:48 | 36.07474 | -115.14595 | 2127 ft | 4 kts | 303° |
| 2026-05-08 01:48 | 36.07505 | -115.14643 | 2131 ft | 5 kts | 323° |
| 2026-05-08 01:48 | 36.07522 | -115.14653 | 2133 ft | 6 kts | 342° |
| 2026-05-08 01:49 | 36.07536 | -115.14655 | 2134 ft | 0 kts | 355° |
| 2026-05-08 01:49 | 36.07645 | -115.14657 | 2135 ft | 20 kts | 359° |
| 2026-05-08 01:49 | 36.07769 | -115.14689 | 2132 ft | 13 kts | 307° |
| 2026-05-08 01:50 | 36.07791 | -115.14737 | 2133 ft | 5 kts | 2° |
| 2026-05-08 01:50 | 36.07903 | -115.14741 | 2133 ft | 22 kts | 338° |
| 2026-05-08 01:50 | 36.07985 | -115.14717 | 2130 ft | 8 kts | 55° |
| 2026-05-08 01:50 | 36.07990 | -115.14707 | 2129 ft | 0 kts | 56° |